createdAt,value
2023-01-25T00:02:09.056Z,18.98
2023-01-25T00:04:36.333Z,19.60
2023-01-25T00:07:03.534Z,19.60
2023-01-25T00:09:33.137Z,20.92
2023-01-25T00:12:00.305Z,20.77
2023-01-25T00:14:27.466Z,19.92
2023-01-25T00:16:54.780Z,19.63
2023-01-25T00:19:22.002Z,20.17
2023-01-25T00:21:51.665Z,17.83
2023-01-25T00:24:18.909Z,20.83
2023-01-25T00:26:48.886Z,17.40
2023-01-25T00:29:19.817Z,21.60
2023-01-25T00:32:07.503Z,20.48
2023-01-25T00:34:34.643Z,19.63
2023-01-25T00:37:12.381Z,22.25
2023-01-25T00:39:41.308Z,21.30
2023-01-25T00:42:10.901Z,19.07
2023-01-25T00:44:40.670Z,20.70
2023-01-25T00:47:13.119Z,21.75
2023-01-25T00:49:42.251Z,22.58
2023-01-25T00:52:10.204Z,21.13
2023-01-25T00:54:37.474Z,18.30
2023-01-25T00:57:07.364Z,21.27
2023-01-25T00:59:35.426Z,20.63
2023-01-25T01:02:03.693Z,19.27
2023-01-25T01:04:33.513Z,15.82
2023-01-25T01:07:01.951Z,19.20
2023-01-25T01:09:34.674Z,20.58
2023-01-25T01:12:04.288Z,18.98
2023-01-25T01:14:34.113Z,20.00
2023-01-25T01:17:03.717Z,17.13
2023-01-25T01:19:30.919Z,19.50
2023-01-25T01:22:02.698Z,16.88
2023-01-25T01:24:30.130Z,16.98
2023-01-25T01:26:57.408Z,18.05
2023-01-25T01:29:27.140Z,20.17
2023-01-25T01:31:56.033Z,16.67
2023-01-25T01:34:25.540Z,16.58
2023-01-25T01:36:56.193Z,14.73
2023-01-25T01:39:27.232Z,18.98
2023-01-25T01:41:54.625Z,19.45
2023-01-25T01:44:47.533Z,19.33
2023-01-25T01:47:41.925Z,18.33
2023-01-25T01:50:23.738Z,18.25
2023-01-25T01:52:54.429Z,17.23
2023-01-25T01:55:24.308Z,16.80
2023-01-25T01:57:58.178Z,16.53
2023-01-25T02:00:32.433Z,18.20
2023-01-25T02:03:01.640Z,21.88
2023-01-25T02:05:40.940Z,15.30
2023-01-25T02:08:13.416Z,16.60
2023-01-25T02:10:41.558Z,19.10
2023-01-25T02:13:10.596Z,17.77
2023-01-25T02:15:49.827Z,19.02
2023-01-25T02:18:18.937Z,19.85
2023-01-25T02:20:50.911Z,17.00
2023-01-25T02:23:27.751Z,19.50
2023-01-25T02:26:01.766Z,21.00
2023-01-25T02:29:08.720Z,25.42
2023-01-25T02:31:36.450Z,17.88
2023-01-25T02:34:03.783Z,18.95
2023-01-25T02:36:36.783Z,19.43
2023-01-25T02:39:13.739Z,16.40
2023-01-25T02:41:43.917Z,20.00
2023-01-25T02:44:34.612Z,19.20
2023-01-25T02:47:28.853Z,17.80
2023-01-25T02:49:56.329Z,18.83
2023-01-25T02:52:23.472Z,20.73
2023-01-25T02:54:50.781Z,22.25
2023-01-25T02:57:23.564Z,20.35
2023-01-25T02:59:50.784Z,19.10
2023-01-25T03:02:19.057Z,17.33
2023-01-25T03:04:46.814Z,15.95
2023-01-25T03:07:16.411Z,17.00
2023-01-25T03:09:46.990Z,16.52
2023-01-25T03:12:14.154Z,20.10
2023-01-25T03:14:44.491Z,20.50
2023-01-25T03:17:14.134Z,20.02
2023-01-25T03:19:41.380Z,17.63
2023-01-25T03:22:35.750Z,16.77
2023-01-25T03:25:03.058Z,15.93
2023-01-25T03:27:31.022Z,17.77
2023-01-25T03:30:07.042Z,16.30
2023-01-25T03:32:34.244Z,15.50
2023-01-25T03:35:06.718Z,15.48
2023-01-25T03:37:34.454Z,16.55
2023-01-25T03:40:06.803Z,17.87
2023-01-25T03:42:38.858Z,15.90
2023-01-25T03:45:06.801Z,17.27
2023-01-25T03:47:36.594Z,17.75
2023-01-25T03:50:04.584Z,16.65
2023-01-25T03:52:38.476Z,15.23
2023-01-25T03:55:10.196Z,18.98
2023-01-25T03:57:41.545Z,18.88
2023-01-25T04:00:12.842Z,15.90
2023-01-25T04:02:42.729Z,16.15
2023-01-25T04:05:18.461Z,14.90
2023-01-25T04:07:45.792Z,15.18
2023-01-25T04:10:14.046Z,15.48
2023-01-25T04:12:45.205Z,15.57
2023-01-25T04:15:12.593Z,14.75
2023-01-25T04:17:40.243Z,16.03
2023-01-25T04:20:19.620Z,14.30
2023-01-25T04:22:46.996Z,17.50
2023-01-25T04:25:16.152Z,17.35
2023-01-25T04:27:50.178Z,18.70
2023-01-25T04:30:18.137Z,13.80
2023-01-25T04:32:47.075Z,15.60
2023-01-25T04:35:31.217Z,18.48
2023-01-25T04:38:03.019Z,16.85
2023-01-25T04:40:36.543Z,16.42
2023-01-25T04:43:03.950Z,16.27
2023-01-25T04:45:34.068Z,18.15
2023-01-25T04:48:10.166Z,18.00
2023-01-25T04:50:41.520Z,17.15
2023-01-25T04:53:11.733Z,16.83
2023-01-25T04:55:39.221Z,16.60
2023-01-25T04:58:08.365Z,18.55
2023-01-25T05:00:35.534Z,16.13
2023-01-25T05:03:06.170Z,18.80
2023-01-25T05:05:35.622Z,20.33
2023-01-25T05:08:07.623Z,18.87
2023-01-25T05:10:35.196Z,16.00
2023-01-25T05:13:23.378Z,20.40
2023-01-25T05:15:59.821Z,19.48
2023-01-25T05:18:31.085Z,18.58
2023-01-25T05:21:31.845Z,19.43
2023-01-25T05:23:59.249Z,18.52
2023-01-25T05:26:44.794Z,17.67
2023-01-25T05:29:19.225Z,17.15
2023-01-25T05:31:52.988Z,18.35
2023-01-25T05:34:20.290Z,18.13
2023-01-25T05:36:50.017Z,20.40
2023-01-25T05:39:18.202Z,19.42
2023-01-25T05:41:47.675Z,20.92
2023-01-25T05:44:17.988Z,23.02
2023-01-25T05:46:50.390Z,21.20
2023-01-25T05:49:21.270Z,21.15
2023-01-25T05:51:49.076Z,17.75
2023-01-25T05:54:17.843Z,22.13
2023-01-25T05:56:53.706Z,19.48
2023-01-25T05:59:20.951Z,20.83
2023-01-25T06:01:52.839Z,20.92
2023-01-25T06:04:22.883Z,22.38
2023-01-25T06:06:50.053Z,23.33
2023-01-25T06:09:17.670Z,21.83
2023-01-25T06:11:46.261Z,22.73
2023-01-25T06:14:14.202Z,19.83
2023-01-25T06:16:41.789Z,21.63
2023-01-25T06:19:41.269Z,23.40
2023-01-25T06:22:23.880Z,21.35
2023-01-25T06:24:53.154Z,20.37
2023-01-25T06:27:22.614Z,17.75
2023-01-25T06:29:50.466Z,17.83
2023-01-25T06:32:17.881Z,18.20
2023-01-25T06:34:46.385Z,22.27
2023-01-25T06:37:21.680Z,24.70
2023-01-25T06:39:48.975Z,18.42
2023-01-25T06:42:18.181Z,18.98
2023-01-25T06:44:47.579Z,23.75
2023-01-25T06:47:14.783Z,22.15
2023-01-25T06:49:42.021Z,20.37
2023-01-25T06:52:11.684Z,19.45
2023-01-25T06:54:38.883Z,19.13
2023-01-25T06:57:06.042Z,22.20
2023-01-25T06:59:36.008Z,20.55
2023-01-25T07:02:03.368Z,20.17
2023-01-25T07:04:30.937Z,19.73
2023-01-25T07:06:58.870Z,20.92
2023-01-25T07:09:26.067Z,21.42
2023-01-25T07:11:53.379Z,21.50
2023-01-25T07:14:20.597Z,19.73
2023-01-25T07:16:47.788Z,19.17
2023-01-25T07:19:15.069Z,20.90
2023-01-25T07:21:42.715Z,22.77
2023-01-25T07:24:15.579Z,18.98
2023-01-25T07:26:43.163Z,22.23
2023-01-25T07:29:16.011Z,17.77
2023-01-25T07:31:43.622Z,21.17
2023-01-25T07:34:13.106Z,22.02
2023-01-25T07:36:43.648Z,20.63
2023-01-25T07:39:11.847Z,16.83
2023-01-25T07:41:41.267Z,20.20
2023-01-25T07:44:13.358Z,18.60
2023-01-25T07:46:47.518Z,17.05
2023-01-25T07:49:17.019Z,20.30
2023-01-25T07:51:44.268Z,16.20
2023-01-25T07:54:12.467Z,17.65
2023-01-25T07:56:40.738Z,18.67
2023-01-25T07:59:09.929Z,20.58
2023-01-25T08:01:37.674Z,17.55
2023-01-25T08:04:08.708Z,15.80
2023-01-25T08:06:40.969Z,18.98
2023-01-25T08:09:13.604Z,22.88
2023-01-25T08:11:46.064Z,21.40
2023-01-25T08:14:13.340Z,24.85
2023-01-25T08:16:40.606Z,21.93
2023-01-25T08:19:14.029Z,19.02
2023-01-25T08:21:41.457Z,17.38
2023-01-25T08:24:09.690Z,17.45
2023-01-25T08:26:37.936Z,19.08
2023-01-25T08:29:06.362Z,17.13
2023-01-25T08:31:35.686Z,18.60
2023-01-25T08:34:03.888Z,19.33
2023-01-25T08:36:31.149Z,19.42
2023-01-25T08:39:00.777Z,18.20
2023-01-25T08:41:29.606Z,18.47
2023-01-25T08:43:57.650Z,15.50
2023-01-25T08:46:29.367Z,16.77
2023-01-25T08:49:01.237Z,18.08
2023-01-25T08:51:29.689Z,18.48
2023-01-25T08:53:57.041Z,17.20
2023-01-25T08:56:24.261Z,19.13
2023-01-25T08:58:51.611Z,21.95
2023-01-25T09:01:20.181Z,17.85
2023-01-25T09:03:49.985Z,19.88
2023-01-25T09:06:20.871Z,22.57
2023-01-25T09:08:48.573Z,17.85
2023-01-25T09:11:19.675Z,15.65
2023-01-25T09:13:49.704Z,14.95
2023-01-25T09:16:26.623Z,17.65
2023-01-25T09:18:55.127Z,18.97
2023-01-25T09:21:22.543Z,21.92
2023-01-25T09:24:04.473Z,17.35
2023-01-25T09:26:38.230Z,18.95
2023-01-25T09:29:07.919Z,18.50
2023-01-25T09:31:40.379Z,14.53
2023-01-25T09:34:16.296Z,17.08
2023-01-25T09:36:44.541Z,18.85
2023-01-25T09:39:14.876Z,14.15
2023-01-25T09:41:47.802Z,16.52
2023-01-25T09:44:29.962Z,18.53
2023-01-25T09:47:02.064Z,16.52
2023-01-25T09:49:32.103Z,15.32
2023-01-25T09:52:47.010Z,18.95
2023-01-25T09:55:18.656Z,15.07
2023-01-25T09:57:48.152Z,20.37
2023-01-25T10:00:23.624Z,16.88
2023-01-25T10:03:23.067Z,18.85
2023-01-25T10:05:54.115Z,18.38
2023-01-25T10:08:44.839Z,19.40
2023-01-25T10:11:26.700Z,15.73
2023-01-25T10:13:56.677Z,19.70
2023-01-25T10:16:31.925Z,15.15
2023-01-25T10:19:14.764Z,17.80
2023-01-25T10:22:02.016Z,19.17
2023-01-25T10:25:15.485Z,19.10
2023-01-25T10:28:00.402Z,19.52
2023-01-25T10:30:52.350Z,19.15
2023-01-25T10:33:20.678Z,12.70
2023-01-25T10:35:49.841Z,15.30
2023-01-25T10:38:49.095Z,15.40
2023-01-25T10:41:27.089Z,18.23
2023-01-25T10:44:13.113Z,16.38
2023-01-25T10:46:44.102Z,20.13
2023-01-25T10:49:42.278Z,18.02
2023-01-25T10:52:25.127Z,22.02
2023-01-25T10:55:14.507Z,18.77
2023-01-25T10:57:51.701Z,18.90
2023-01-25T11:00:30.899Z,19.48
2023-01-25T11:03:00.494Z,18.30
2023-01-25T11:05:36.318Z,22.63
2023-01-25T11:08:22.306Z,15.37
2023-01-25T11:10:50.290Z,21.77
2023-01-25T11:13:17.508Z,17.95
2023-01-25T11:16:07.575Z,16.90
2023-01-25T11:18:37.006Z,17.33
2023-01-25T11:21:04.369Z,18.65
2023-01-25T11:23:32.411Z,17.50
2023-01-25T11:26:20.049Z,16.77
2023-01-25T11:28:49.181Z,15.98
2023-01-25T11:31:24.916Z,15.40
2023-01-25T11:33:52.258Z,17.80
2023-01-25T11:36:25.455Z,17.80
2023-01-25T11:39:03.016Z,18.40
2023-01-25T11:41:59.125Z,16.40
2023-01-25T11:44:40.335Z,14.47
2023-01-25T11:47:41.574Z,16.73
2023-01-25T11:50:28.231Z,15.98
2023-01-25T11:53:26.543Z,15.88
2023-01-25T11:56:08.723Z,15.35
2023-01-25T11:58:54.663Z,15.13
2023-01-25T12:01:38.093Z,16.30
2023-01-25T12:04:26.722Z,16.85
2023-01-25T12:07:06.760Z,13.77
2023-01-25T12:09:52.016Z,14.25
2023-01-25T12:12:31.296Z,13.33
2023-01-25T12:15:16.478Z,12.33
2023-01-25T12:18:07.353Z,16.27
2023-01-25T12:21:08.058Z,14.90
2023-01-25T12:23:55.337Z,13.85
2023-01-25T12:26:28.928Z,17.67
2023-01-25T12:29:24.290Z,15.03
2023-01-25T12:31:58.614Z,14.75
2023-01-25T12:34:38.307Z,15.05
2023-01-25T12:37:35.393Z,13.35
2023-01-25T12:40:10.639Z,12.60
2023-01-25T12:42:44.550Z,10.90
2023-01-25T12:45:36.104Z,10.90
2023-01-25T12:48:20.276Z,15.85
2023-01-25T12:50:54.277Z,15.60
2023-01-25T12:53:37.068Z,23.23
2023-01-25T12:56:09.166Z,25.53
2023-01-25T12:58:46.900Z,16.17
2023-01-25T13:01:34.617Z,12.52
2023-01-25T13:04:01.858Z,16.40
2023-01-25T13:06:29.053Z,16.23
2023-01-25T13:09:08.212Z,14.10
2023-01-25T13:11:40.915Z,16.00
2023-01-25T13:14:17.001Z,16.67
2023-01-25T13:16:53.851Z,17.67
2023-01-25T13:19:31.746Z,17.70
2023-01-25T13:22:00.434Z,14.50
2023-01-25T13:24:32.982Z,16.80
2023-01-25T13:27:05.864Z,16.52
2023-01-25T13:29:59.097Z,15.15
2023-01-25T13:32:27.564Z,13.23
2023-01-25T13:34:54.744Z,15.60
2023-01-25T13:37:30.366Z,15.38
2023-01-25T13:40:22.674Z,16.23
2023-01-25T13:43:21.383Z,19.35
2023-01-25T13:45:51.373Z,16.50
2023-01-25T13:48:22.002Z,18.23
2023-01-25T13:50:53.641Z,16.60
2023-01-25T13:53:23.375Z,16.60
2023-01-25T13:55:56.973Z,17.60
2023-01-25T13:58:50.602Z,18.57
2023-01-25T14:01:23.853Z,16.65
2023-01-25T14:04:25.809Z,12.73
2023-01-25T14:06:59.769Z,17.20
2023-01-25T14:09:27.084Z,15.63
2023-01-25T14:12:00.568Z,15.80
2023-01-25T14:14:33.331Z,20.92
2023-01-25T14:17:09.475Z,18.52
2023-01-25T14:19:39.668Z,23.70
2023-01-25T14:22:33.627Z,21.73
2023-01-25T14:25:15.795Z,19.30
2023-01-25T14:27:50.860Z,22.48
2023-01-25T14:30:20.894Z,15.13
2023-01-25T14:32:49.907Z,17.17
2023-01-25T14:35:43.544Z,16.45
2023-01-25T14:38:38.003Z,16.33
2023-01-25T14:41:21.655Z,15.75
2023-01-25T14:43:51.848Z,18.85
2023-01-25T14:46:23.386Z,17.75
2023-01-25T14:49:05.884Z,16.48
2023-01-25T14:51:33.945Z,15.20
2023-01-25T14:54:05.943Z,19.90
2023-01-25T14:56:43.130Z,17.80
2023-01-25T14:59:24.803Z,16.42
2023-01-25T15:01:54.405Z,17.83
2023-01-25T15:04:22.191Z,18.97
2023-01-25T15:06:56.061Z,16.60
2023-01-25T15:09:37.469Z,16.50
2023-01-25T15:12:06.546Z,14.45
2023-01-25T15:14:47.143Z,15.38
2023-01-25T15:17:43.788Z,18.83
2023-01-25T15:20:37.600Z,16.50
2023-01-25T15:23:25.821Z,14.93
2023-01-25T15:25:58.102Z,15.75
2023-01-25T15:28:34.494Z,16.48
2023-01-25T15:31:04.339Z,15.30
2023-01-25T15:33:32.808Z,18.77
2023-01-25T15:36:02.491Z,17.05
2023-01-25T15:38:32.048Z,19.13
2023-01-25T15:41:01.525Z,17.00
2023-01-25T15:43:28.839Z,18.63
2023-01-25T15:45:59.415Z,23.10
2023-01-25T15:48:30.989Z,20.15
2023-01-25T15:50:58.348Z,15.93
2023-01-25T15:53:28.126Z,23.75
2023-01-25T15:56:01.981Z,16.60
2023-01-25T15:58:41.150Z,19.50
2023-01-25T16:01:08.651Z,21.52
2023-01-25T16:03:36.108Z,23.00
2023-01-25T16:06:27.297Z,22.90
2023-01-25T16:08:54.686Z,17.40
2023-01-25T16:11:21.832Z,21.40
2023-01-25T16:13:51.422Z,21.73
2023-01-25T16:16:24.295Z,22.52
2023-01-25T16:18:54.031Z,23.50
2023-01-25T16:21:21.173Z,22.73
2023-01-25T16:23:48.412Z,19.73
2023-01-25T16:26:20.537Z,21.10
2023-01-25T16:28:47.811Z,22.08
2023-01-25T16:31:31.193Z,22.60
2023-01-25T16:33:59.757Z,20.53
2023-01-25T16:36:29.165Z,18.15
2023-01-25T16:38:56.488Z,19.75
2023-01-25T16:41:23.700Z,15.25
2023-01-25T16:43:53.566Z,13.70
2023-01-25T16:46:24.186Z,16.73
2023-01-25T16:48:52.483Z,17.20
2023-01-25T16:51:25.948Z,16.92
2023-01-25T16:54:00.951Z,23.55
2023-01-25T16:56:31.756Z,16.90
2023-01-25T16:59:05.124Z,20.60
2023-01-25T17:01:33.059Z,22.13
2023-01-25T17:04:05.509Z,22.15
2023-01-25T17:06:35.165Z,24.40
2023-01-25T17:09:20.612Z,19.38
2023-01-25T17:11:49.835Z,18.77
2023-01-25T17:14:21.602Z,20.58
2023-01-25T17:16:51.546Z,20.60
2023-01-25T17:19:21.511Z,25.90
2023-01-25T17:21:48.854Z,23.00
2023-01-25T17:24:19.082Z,24.00
2023-01-25T17:26:46.372Z,21.52
2023-01-25T17:29:16.393Z,27.67
2023-01-25T17:31:45.854Z,24.55
2023-01-25T17:34:16.202Z,26.88
2023-01-25T17:36:44.334Z,28.87
2023-01-25T17:39:15.672Z,24.77
2023-01-25T17:41:44.311Z,22.15
2023-01-25T17:44:17.380Z,22.50
2023-01-25T17:46:47.230Z,22.23
2023-01-25T17:49:17.722Z,23.77
2023-01-25T17:51:45.237Z,24.10
2023-01-25T17:54:13.107Z,22.88
2023-01-25T17:56:40.709Z,21.50
2023-01-25T17:59:09.457Z,22.63
2023-01-25T18:01:39.248Z,23.00
2023-01-25T18:04:08.013Z,26.67
2023-01-25T18:06:37.623Z,23.30
2023-01-25T18:09:06.365Z,23.40
2023-01-25T18:11:35.779Z,22.52
2023-01-25T18:14:08.213Z,22.07
2023-01-25T18:16:37.797Z,23.05
2023-01-25T18:19:05.559Z,20.90
2023-01-25T18:21:33.868Z,19.10
2023-01-25T18:24:04.974Z,18.00
2023-01-25T18:26:35.604Z,15.67
2023-01-25T18:29:15.044Z,20.05
2023-01-25T18:31:42.461Z,21.83
2023-01-25T18:34:09.685Z,16.58
2023-01-25T18:36:36.843Z,25.08
2023-01-25T18:39:06.779Z,26.30
2023-01-25T18:41:33.968Z,22.38
2023-01-25T18:44:01.064Z,21.58
2023-01-25T18:46:33.508Z,24.17
2023-01-25T18:49:00.737Z,22.27
2023-01-25T18:51:27.932Z,22.27
2023-01-25T18:53:55.377Z,26.85
2023-01-25T18:56:25.621Z,23.58
2023-01-25T18:58:55.428Z,20.92
2023-01-25T19:01:23.013Z,24.20
2023-01-25T19:03:51.248Z,22.23
2023-01-25T19:06:19.746Z,23.13
2023-01-25T19:08:53.171Z,26.25
2023-01-25T19:11:21.815Z,20.65
2023-01-25T19:13:49.929Z,27.25
2023-01-25T19:16:20.134Z,22.77
2023-01-25T19:18:50.084Z,23.02
2023-01-25T19:21:21.311Z,25.05
2023-01-25T19:23:48.811Z,25.33
2023-01-25T19:26:18.556Z,27.63
2023-01-25T19:28:46.938Z,26.80
2023-01-25T19:31:22.787Z,25.45
2023-01-25T19:33:55.480Z,31.85
2023-01-25T19:36:23.246Z,29.83
2023-01-25T19:38:50.943Z,31.52
2023-01-25T19:41:25.709Z,27.90
2023-01-25T19:43:58.657Z,30.73
2023-01-25T19:46:30.165Z,31.23
2023-01-25T19:49:00.661Z,30.63
2023-01-25T19:51:30.428Z,35.35
2023-01-25T19:54:10.202Z,37.27
2023-01-25T19:56:40.836Z,30.88
2023-01-25T19:59:18.701Z,34.13
2023-01-25T20:01:46.309Z,30.75
2023-01-25T20:04:17.684Z,23.92
2023-01-25T20:06:44.876Z,27.43
2023-01-25T20:09:13.783Z,20.30
2023-01-25T20:11:43.941Z,24.38
2023-01-25T20:14:12.840Z,26.23
2023-01-25T20:16:40.184Z,21.58
2023-01-25T20:19:07.332Z,23.43
2023-01-25T20:21:38.151Z,21.85
2023-01-25T20:24:09.859Z,24.25
2023-01-25T20:26:39.685Z,25.08
2023-01-25T20:29:07.610Z,24.15
2023-01-25T20:31:41.168Z,26.87
2023-01-25T20:34:13.298Z,25.55
2023-01-25T20:36:41.127Z,23.17
2023-01-25T20:39:10.973Z,26.13
2023-01-25T20:41:40.675Z,25.25
2023-01-25T20:44:08.770Z,26.53
2023-01-25T20:46:38.700Z,24.52
2023-01-25T20:49:08.978Z,24.55
2023-01-25T20:51:36.598Z,25.20
2023-01-25T20:54:03.832Z,27.50
2023-01-25T20:56:31.784Z,30.83
2023-01-25T20:59:01.339Z,27.95
2023-01-25T21:01:37.407Z,31.92
2023-01-25T21:04:07.256Z,31.75
2023-01-25T21:06:35.334Z,29.33
2023-01-25T21:09:03.419Z,30.43
2023-01-25T21:11:30.961Z,33.05
2023-01-25T21:13:59.629Z,29.23
2023-01-25T21:16:29.201Z,28.67
2023-01-25T21:18:58.810Z,34.78
2023-01-25T21:21:32.500Z,32.80
2023-01-25T21:24:02.473Z,37.65
2023-01-25T21:26:35.047Z,34.03
2023-01-25T21:29:03.752Z,50.45
2023-01-25T21:31:35.439Z,49.08
2023-01-25T21:34:03.997Z,55.10
2023-01-25T21:36:31.246Z,43.58
2023-01-25T21:38:58.882Z,44.22
2023-01-25T21:41:30.540Z,55.85
2023-01-25T21:44:17.626Z,47.67
2023-01-25T21:47:06.075Z,34.90
2023-01-25T21:49:51.274Z,40.20
2023-01-25T21:52:18.529Z,39.88
2023-01-25T21:54:45.653Z,41.60
2023-01-25T21:57:13.010Z,36.53
2023-01-25T21:59:40.967Z,39.80
2023-01-25T22:02:14.796Z,37.33
2023-01-25T22:04:42.223Z,33.92
2023-01-25T22:07:11.889Z,30.58
2023-01-25T22:09:39.150Z,27.42
2023-01-25T22:12:06.478Z,30.43
2023-01-25T22:14:34.774Z,25.45
2023-01-25T22:17:05.048Z,29.15
2023-01-25T22:19:34.745Z,20.33
2023-01-25T22:22:01.973Z,21.20
2023-01-25T22:24:29.118Z,22.43
2023-01-25T22:27:26.525Z,20.88
2023-01-25T22:29:55.777Z,22.15
2023-01-25T22:32:25.121Z,20.77
2023-01-25T22:34:55.429Z,23.02
2023-01-25T22:37:24.923Z,24.70
2023-01-25T22:39:54.499Z,17.85
2023-01-25T22:42:21.648Z,18.58
2023-01-25T22:44:48.780Z,24.38
2023-01-25T22:47:15.911Z,19.85
2023-01-25T22:49:43.176Z,25.53
2023-01-25T22:52:10.351Z,28.05
2023-01-25T22:54:37.540Z,29.08
2023-01-25T22:57:04.702Z,27.40
2023-01-25T22:59:34.004Z,29.40
2023-01-25T23:02:01.341Z,24.77
2023-01-25T23:04:28.611Z,22.70
2023-01-25T23:07:02.831Z,22.02
2023-01-25T23:09:30.245Z,24.20
2023-01-25T23:11:57.393Z,24.10
2023-01-25T23:14:51.293Z,24.23
2023-01-25T23:17:39.073Z,22.55
2023-01-25T23:20:07.331Z,20.23
2023-01-25T23:22:34.740Z,22.77
2023-01-25T23:25:02.036Z,24.42
2023-01-25T23:27:31.281Z,23.93
2023-01-25T23:30:00.494Z,25.58
2023-01-25T23:32:28.209Z,26.33
2023-01-25T23:34:55.482Z,21.38
2023-01-25T23:37:25.204Z,25.48
2023-01-25T23:39:54.656Z,26.50
2023-01-25T23:42:24.117Z,21.80
2023-01-25T23:44:53.344Z,24.67
2023-01-25T23:47:22.728Z,24.48
2023-01-25T23:49:52.115Z,27.33
2023-01-25T23:52:19.226Z,28.87
2023-01-25T23:54:46.436Z,28.77
2023-01-25T23:57:16.061Z,26.42
2023-01-25T23:59:43.265Z,24.30
